< < Back
Terminal Aerodrome Forecast


Current Version              Previous Versions:   1  2  3  4  5  6  7  8  9  

Terminal Aerodrome Forecast

199
FTUS42 KGSP 182332
TAFAVL
TAF
KAVL 182332Z 1900/1924 20004KT P6SM VCSH BKN060
     FM190300 13003KT P6SM VCSH OVC035
     FM190500 15005KT 6SM BR VCSH OVC020
     FM190700 14006KT 4SM SHRA BR OVC015
     FM191200 15009KT 2SM SHRA BR OVC008
     FM191600 15010G20KT 3SM +SHRA BR OVC007 PROB30 1916/1922 4SM
      TSRA OVC008CB=

Latest METAR

516
SAUS70 KWBC 190900 RRE
MTRAVL
METAR KAVL 190854Z AUTO 16004KT 10SM BKN013 OVC022 16/15 A2996 RMK AO2
SLP125 T01610150 57004 $


USA.gov is the U.S. government's official web portal to all federal, state and local government web resources and services.